Time;durP1;ratioP1;P1;durP2;ratioP2;P2;SDS_P1;SDS_P2;PMS_P1;PMS_P2;Temp;Humidity;BMP_temperature;BMP_pressure;BME280_temperature;BME280_humidity;BME280_pressure;Samples;Min_cycle;Max_cycle;Signal;HPM_P1;HPM_P2
2022/12/16 00:01:58;;;;;;;26.85;11.65;;;;;;;-6.05;100.00;100186.13;5172244;28;20033;-74
2022/12/16 00:04:29;;;;;;;24.70;11.27;;;;;;;-6.26;98.78;100193.25;5159617;28;20420;-74
2022/12/16 00:06:59;;;;;;;28.13;12.45;;;;;;;-6.56;99.19;100194.16;5166217;28;20026;-74
2022/12/16 00:09:29;;;;;;;24.02;11.15;;;;;;;-6.69;100.00;100203.16;5164478;28;20049;-74
2022/12/16 00:12:00;;;;;;;25.33;12.02;;;;;;;-6.61;100.00;100201.66;5166698;28;20041;-74
2022/12/16 00:14:30;;;;;;;26.15;11.07;;;;;;;-6.63;100.00;100203.31;5166432;28;20026;-75
2022/12/16 00:17:00;;;;;;;21.88;9.63;;;;;;;-6.61;100.00;100206.72;5170053;28;20534;-75
2022/12/16 00:19:31;;;;;;;20.48;9.57;;;;;;;-6.81;100.00;100207.91;5174418;28;20026;-74
2022/12/16 00:22:01;;;;;;;21.98;9.65;;;;;;;-6.85;100.00;100208.63;5169864;28;20057;-75
2022/12/16 00:24:31;;;;;;;23.30;9.30;;;;;;;-6.74;100.00;100214.84;5169524;28;20169;-74
2022/12/16 00:27:02;;;;;;;21.52;9.93;;;;;;;-6.46;99.38;100212.22;5169260;28;20037;-75
2022/12/16 00:29:32;;;;;;;22.38;9.48;;;;;;;-6.79;97.86;100223.19;5168398;28;20092;-75
2022/12/16 00:32:03;;;;;;;22.63;9.23;;;;;;;-7.01;97.64;100224.28;5168575;28;20112;-74
2022/12/16 00:34:33;;;;;;;20.33;9.13;;;;;;;-6.72;97.51;100228.47;5170167;28;20089;-74
2022/12/16 00:37:03;;;;;;;22.30;9.00;;;;;;;-6.71;96.53;100227.66;5170994;28;20053;-75
2022/12/16 00:39:34;;;;;;;20.50;9.13;;;;;;;-6.62;95.05;100222.78;5172860;28;20330;-74
2022/12/16 00:42:04;;;;;;;19.58;9.20;;;;;;;-6.88;94.34;100226.34;5167514;28;20427;-74
2022/12/16 00:44:34;;;;;;;21.77;9.75;;;;;;;-7.11;93.53;100232.44;5166884;28;20022;-75
2022/12/16 00:47:05;;;;;;;22.70;10.05;;;;;;;-7.20;95.62;100233.00;5169308;28;20460;-76
2022/12/16 00:49:35;;;;;;;22.75;9.73;;;;;;;-7.26;97.64;100231.16;5165293;28;20088;-75
2022/12/16 00:52:06;;;;;;;28.40;10.63;;;;;;;-7.32;97.91;100235.19;5168620;28;20735;-74
2022/12/16 00:54:36;;;;;;;21.92;10.38;;;;;;;-7.39;99.55;100224.00;5179371;28;20033;-74
2022/12/16 00:57:06;;;;;;;22.95;10.63;;;;;;;-7.41;100.00;100232.34;5171633;28;20023;-74
2022/12/16 00:59:36;;;;;;;21.50;9.98;;;;;;;-7.41;99.87;100227.28;5169026;28;20037;-73
2022/12/16 01:02:07;;;;;;;26.35;11.02;;;;;;;-7.33;100.00;100228.38;5163275;28;20415;-74
2022/12/16 01:04:37;;;;;;;28.27;11.75;;;;;;;-7.32;100.00;100230.09;5168559;28;20065;-75
2022/12/16 01:07:08;;;;;;;26.13;12.23;;;;;;;-7.11;100.00;100229.91;5170407;28;20053;-74
2022/12/16 01:09:38;;;;;;;28.17;11.27;;;;;;;-7.22;100.00;100234.66;5170213;28;20125;-75
2022/12/16 01:12:08;;;;;;;23.60;10.75;;;;;;;-7.26;100.00;100230.28;5170327;28;20030;-74
2022/12/16 01:14:39;;;;;;;26.05;11.43;;;;;;;-7.26;100.00;100236.22;5167040;28;20113;-74
2022/12/16 01:17:09;;;;;;;24.50;11.38;;;;;;;-7.29;100.00;100241.22;5176669;28;20021;-74
2022/12/16 01:19:39;;;;;;;24.00;11.27;;;;;;;-7.33;100.00;100241.91;5164967;28;20034;-75
2022/12/16 01:22:10;;;;;;;27.85;12.13;;;;;;;-7.32;100.00;100242.78;5171490;28;20195;-75
2022/12/16 01:24:42;;;;;;;29.05;12.20;;;;;;;-7.35;100.00;100246.09;5167367;28;20046;-75
2022/12/16 01:27:14;;;;;;;24.98;11.63;;;;;;;-7.23;100.00;100250.66;5170543;28;20014;-72
2022/12/16 01:29:44;;;;;;;27.10;12.05;;;;;;;-7.08;100.00;100251.97;5166820;28;20503;-75
2022/12/16 01:32:14;;;;;;;25.75;11.57;;;;;;;-7.22;100.00;100252.41;5172106;28;20036;-75
2022/12/16 01:34:49;;;;;;;24.45;11.25;;;;;;;-7.21;100.00;100257.50;5157379;28;20050;-72
2022/12/16 01:37:21;;;;;;;23.85;10.60;;;;;;;-7.18;100.00;100261.00;5168397;28;20019;-73
2022/12/16 01:39:51;;;;;;;31.73;12.15;;;;;;;-7.18;100.00;100250.84;5166304;28;20034;-75
2022/12/16 01:42:22;;;;;;;27.20;10.88;;;;;;;-7.18;100.00;100250.84;5172837;28;20084;-74
2022/12/16 01:44:53;;;;;;;24.83;11.07;;;;;;;-7.10;100.00;100254.44;5171304;28;20195;-75
2022/12/16 01:47:31;;;;;;;28.42;11.70;;;;;;;-7.21;100.00;100252.44;5178614;28;20030;-75
2022/12/16 01:50:09;;;;;;;22.65;10.98;;;;;;;-7.25;100.00;100258.25;5172059;28;20391;-74
2022/12/16 01:52:48;;;;;;;23.27;10.93;;;;;;;-7.31;100.00;100247.91;5171286;28;20064;-74
2022/12/16 01:55:21;;;;;;;23.50;10.98;;;;;;;-7.39;100.00;100258.66;5169661;28;20026;-74
2022/12/16 01:58:06;;;;;;;23.08;11.05;;;;;;;-7.28;100.00;100252.19;5162997;28;20034;-72
2022/12/16 02:00:38;;;;;;;25.85;9.43;;;;;;;-7.35;100.00;100252.84;5172086;28;20037;-74
2022/12/16 02:03:09;;;;;;;27.52;10.57;;;;;;;-7.46;100.00;100256.75;5170846;28;20272;-75
2022/12/16 02:05:41;;;;;;;24.38;10.80;;;;;;;-7.47;100.00;100255.00;5171142;28;20045;-73
2022/12/16 02:08:14;;;;;;;25.60;10.57;;;;;;;-7.52;100.00;100252.34;5173857;28;20459;-74
2022/12/16 02:11:03;;;;;;;23.55;10.35;;;;;;;-7.56;100.00;100244.59;5174138;28;20030;-74
2022/12/16 02:14:05;;;;;;;24.02;10.63;;;;;;;-7.35;100.00;100250.31;5174804;28;20056;-74
2022/12/16 02:16:41;;;;;;;26.60;10.32;;;;;;;-7.37;100.00;100251.94;5173948;28;20022;-74
2022/12/16 02:19:23;;;;;;;21.75;9.77;;;;;;;-7.39;100.00;100259.50;5167830;28;20552;-75
2022/12/16 02:22:02;;;;;;;25.65;10.82;;;;;;;-7.29;100.00;100248.81;5171361;28;20189;-74
2022/12/16 02:24:41;;;;;;;26.15;10.25;;;;;;;-7.42;99.68;100248.41;5171223;28;20033;-74
2022/12/16 02:27:36;;;;;;;23.00;10.38;;;;;;;-7.51;100.00;100254.06;5174430;28;20046;-74
2022/12/16 02:30:40;;;;;;;23.52;9.98;;;;;;;-7.53;100.00;100249.78;5173840;28;20050;-75
2022/12/16 02:33:38;;;;;;;23.20;10.15;;;;;;;-7.56;100.00;100240.38;5169403;28;20054;-75
2022/12/16 02:36:23;;;;;;;23.48;10.27;;;;;;;-7.68;100.00;100249.28;5172714;28;20029;-75
2022/12/16 02:39:16;;;;;;;27.70;10.55;;;;;;;-7.64;100.00;100248.56;5171109;28;20500;-74
2022/12/16 02:42:00;;;;;;;23.15;10.73;;;;;;;-7.58;100.00;100236.06;5170396;28;20193;-75
2022/12/16 02:44:43;;;;;;;23.67;10.88;;;;;;;-7.59;100.00;100245.38;5171942;28;20041;-74
2022/12/16 02:47:13;;;;;;;25.10;10.75;;;;;;;-7.70;100.00;100241.63;5173324;28;20042;-73
2022/12/16 02:49:47;;;;;;;25.00;10.65;;;;;;;-7.78;100.00;100238.00;5168321;28;20033;-74
2022/12/16 02:52:21;;;;;;;24.13;10.45;;;;;;;-7.80;100.00;100238.78;5170299;28;20452;-74
2022/12/16 02:55:00;;;;;;;26.48;11.18;;;;;;;-7.64;100.00;100234.22;5171280;28;20029;-74
2022/12/16 02:58:17;;;;;;;20.60;9.35;;;;;;;-7.84;100.00;100231.88;5173500;28;20095;-75
2022/12/16 03:01:03;;;;;;;22.13;9.75;;;;;;;-7.68;100.00;100229.00;5161849;28;20038;-74
2022/12/16 03:04:20;;;;;;;23.75;10.13;;;;;;;-7.89;99.46;100235.97;5169952;28;20034;-73
2022/12/16 03:06:53;;;;;;;25.02;10.00;;;;;;;-7.81;100.00;100237.06;5161673;28;20323;-74
2022/12/16 03:09:31;;;;;;;22.90;10.52;;;;;;;-7.72;99.98;100233.13;5169931;28;20030;-74
2022/12/16 03:12:08;;;;;;;25.02;10.30;;;;;;;-7.87;98.63;100232.66;5171235;28;20070;-73
2022/12/16 03:14:41;;;;;;;29.10;11.35;;;;;;;-7.81;100.00;100237.06;5172496;28;20115;-74
2022/12/16 03:17:14;;;;;;;27.25;11.10;;;;;;;-7.84;99.47;100231.88;5174473;28;20081;-73
2022/12/16 03:19:53;;;;;;;24.80;11.07;;;;;;;-7.81;100.00;100237.94;5168644;28;20036;-75
2022/12/16 03:22:27;;;;;;;22.55;11.10;;;;;;;-7.54;100.00;100242.97;5164001;28;20266;-75
2022/12/16 03:24:58;;;;;;;25.45;10.50;;;;;;;-7.38;97.60;100230.78;5162886;28;20026;-75
2022/12/16 03:27:41;;;;;;;25.00;10.60;;;;;;;-7.62;95.96;100234.25;5166153;28;20034;-75
2022/12/16 03:30:21;;;;;;;30.08;10.63;;;;;;;-7.88;95.76;100235.16;5172348;28;20116;-75
2022/12/16 03:33:10;;;;;;;23.45;10.35;;;;;;;-7.94;96.85;100235.81;5170259;28;20025;-74
2022/12/16 03:35:50;;;;;;;25.55;10.13;;;;;;;-8.09;97.24;100242.03;5171679;28;20036;-74
2022/12/16 03:38:22;;;;;;;24.00;10.32;;;;;;;-8.11;98.31;100236.06;5168855;28;20033;-74
2022/12/16 03:40:55;;;;;;;24.65;10.50;;;;;;;-8.25;98.51;100237.34;5171651;28;20487;-75
2022/12/16 03:43:26;;;;;;;22.83;10.02;;;;;;;-7.87;98.44;100236.88;5168417;28;20516;-74
2022/12/16 03:46:02;;;;;;;22.45;9.52;;;;;;;-7.95;97.95;100230.69;5169518;28;20022;-74
2022/12/16 03:48:33;;;;;;;23.92;9.93;;;;;;;-8.05;98.40;100238.81;5176240;28;20096;-75
2022/12/16 03:51:03;;;;;;;21.15;10.40;;;;;;;-8.07;98.34;100240.44;5169723;28;20033;-74
2022/12/16 03:53:33;;;;;;;24.42;10.60;;;;;;;-8.19;98.21;100237.53;5172485;28;20472;-74
2022/12/16 03:56:04;;;;;;;22.60;9.15;;;;;;;-8.23;97.81;100240.81;5170309;28;20034;-74
2022/12/16 03:58:34;;;;;;;25.27;10.48;;;;;;;-8.13;99.15;100242.75;5169376;28;20033;-73
2022/12/16 04:01:08;;;;;;;21.92;10.18;;;;;;;-7.95;98.57;100249.31;5170082;28;20102;-74
2022/12/16 04:03:38;;;;;;;22.80;9.82;;;;;;;-7.82;97.88;100245.47;5165003;28;20041;-74
2022/12/16 04:06:08;;;;;;;23.30;10.18;;;;;;;-8.09;96.45;100259.78;5171521;28;20030;-74
2022/12/16 04:08:38;;;;;;;26.25;10.45;;;;;;;-8.07;98.19;100253.97;5169276;28;20030;-75
2022/12/16 04:25:31;;;;;;;23.45;9.98;;;;;;;-7.78;98.83;100282.78;5167905;28;20033;-74
2022/12/16 04:28:02;;;;;;;28.20;10.00;;;;;;;-8.04;97.06;100276.88;5169728;28;20227;-74
2022/12/16 04:30:35;;;;;;;23.17;10.38;;;;;;;-7.94;98.07;100280.56;5169787;28;20030;-74
